NRT weather

Narita International Airport
Tokyo, Chiba Prefecture, Japan

Public forecast

Using degrees Celsius for public forecast. Weather courtesy of forecast.io.

METAR (pilot weather report)

Retrieved 2018/06/22 22:39 UTC (0 seconds ago):

RJAA 222239Z VRB01KT 2200 R16R/P2000N R16L/1600U BR SCT002 BKN/// 20/19 Q1009 RMK 3ST002 A2979

TAF (pilot weather forecast)

Retrieved 2018/06/22 18:00 UTC (4 hours ago):

TAF RJAA 221709Z 2218/2400 15006KT 2000 BR BCFG FEW002 BKN004 TEMPO 2218/2222 0300 FG BKN001 BECMG 2222/2300 9999 NSW FEW005 BKN012 TEMPO 2305/2312 4000 -RA BR FEW005 BKN008 BECMG 2306/2309 36008KT TEMPO 2315/2321 1500 BR BCFG BKN003